Time,TemperatureF,DewpointF,PressureIn,WindDirection,WindDirectionDegrees,WindSpeedMPH,WindSpeedGustMPH,Humidity,HourlyPrecipIn,Conditions,Clouds,dailyrainin,SoftwareType,DateUTC
2013-02-06 00:01:00,41.5,38.5,30.09,SSW,203,0.0,0.0,89,0.00,,,0.00,WSDL version 423,2013-02-06 08:01:00,
2013-02-06 00:06:00,41.5,38.9,30.09,SSW,203,0.0,0.0,91,0.00,,,0.00,WSDL version 423,2013-02-06 08:06:00,
2013-02-06 00:11:00,41.5,39.2,30.09,SSW,203,0.0,0.0,92,0.00,,,0.00,WSDL version 423,2013-02-06 08:11:00,
2013-02-06 00:16:00,41.3,39.1,30.09,SSW,203,0.0,0.0,91,0.00,,,0.00,WSDL version 423,2013-02-06 08:16:00,
2013-02-06 00:21:00,41.1,38.7,30.10,SSW,203,0.0,0.0,91,0.00,,,0.00,WSDL version 423,2013-02-06 08:21:00,
2013-02-06 00:26:00,40.9,38.6,30.10,SSW,203,0.0,0.0,92,0.00,,,0.00,WSDL version 423,2013-02-06 08:26:00,
2013-02-06 00:31:00,40.6,38.6,30.10,SSW,203,0.0,0.0,92,0.00,,,0.00,WSDL version 423,2013-02-06 08:31:00,
2013-02-06 00:36:00,40.5,38.4,30.10,SSW,203,0.0,0.0,92,0.00,,,0.00,WSDL version 423,2013-02-06 08:36:00,
2013-02-06 00:41:00,40.3,38.2,30.10,SSW,203,0.0,0.0,92,0.00,,,0.00,WSDL version 423,2013-02-06 08:41:00,
2013-02-06 00:46:00,40.1,37.8,30.10,SSW,203,0.0,0.0,91,0.00,,,0.00,WSDL version 423,2013-02-06 08:46:00,
2013-02-06 00:51:00,39.9,37.5,30.10,SSW,203,0.0,0.0,91,0.00,,,0.00,WSDL version 423,2013-02-06 08:51:00,
2013-02-06 00:56:00,39.9,37.8,30.10,SSW,203,0.0,0.0,92,0.00,,,0.00,WSDL version 423,2013-02-06 08:56:00,
2013-02-06 01:01:00,39.9,37.8,30.10,SSW,203,0.0,0.0,92,0.00,,,0.00,WSDL version 423,2013-02-06 09:01:00,
2013-02-06 01:06:00,39.7,37.7,30.10,SSW,203,0.0,0.0,92,0.00,,,0.00,WSDL version 423,2013-02-06 09:06:00,
2013-02-06 01:11:00,39.6,37.5,30.10,SSW,203,0.0,0.0,92,0.00,,,0.00,WSDL version 423,2013-02-06 09:11:00,
2013-02-06 01:16:00,39.3,37.3,30.10,SSW,203,0.0,0.0,92,0.00,,,0.00,WSDL version 423,2013-02-06 09:16:00,
2013-02-06 01:21:00,39.1,37.2,30.10,SSW,203,0.0,0.0,93,0.00,,,0.00,WSDL version 423,2013-02-06 09:21:00,
2013-02-06 01:26:00,38.9,37.1,30.11,SSW,203,0.0,0.0,93,0.00,,,0.00,WSDL version 423,2013-02-06 09:26:00,
2013-02-06 01:31:00,38.8,37.1,30.10,SSW,203,0.0,0.0,93,0.00,,,0.00,WSDL version 423,2013-02-06 09:31:00,
2013-02-06 01:36:00,38.8,37.1,30.10,SSW,203,0.0,0.0,93,0.00,,,0.00,WSDL version 423,2013-02-06 09:36:00,
2013-02-06 01:41:00,39.1,37.7,30.10,SSW,203,0.0,0.0,95,0.00,,,0.00,WSDL version 423,2013-02-06 09:41:00,
2013-02-06 01:46:00,39.2,38.0,30.10,SSW,203,0.0,0.0,96,0.00,,,0.00,WSDL version 423,2013-02-06 09:46:00,
2013-02-06 01:51:00,39.2,38.3,30.10,SSW,203,0.0,0.0,97,0.00,,,0.00,WSDL version 423,2013-02-06 09:51:00,
2013-02-06 01:56:00,39.2,38.4,30.10,SSW,203,0.0,0.0,97,0.00,,,0.00,WSDL version 423,2013-02-06 09:56:00,
2013-02-06 02:01:00,39.5,38.7,30.09,SSW,203,0.0,0.0,98,0.00,,,0.00,WSDL version 423,2013-02-06 10:01:00,
2013-02-06 02:06:00,40.0,39.4,30.09,SSW,203,0.0,0.0,99,0.00,,,0.00,WSDL version 423,2013-02-06 10:06:00,
2013-02-06 02:11:00,40.3,40.0,30.09,SSW,203,0.0,0.0,99,0.00,,,0.00,WSDL version 423,2013-02-06 10:11:00,
2013-02-06 02:16:00,40.6,40.5,30.09,SSW,203,0.0,0.0,100,0.00,,,0.00,WSDL version 423,2013-02-06 10:16:00,
2013-02-06 02:21:00,40.8,40.8,30.08,SSW,203,0.0,0.0,100,0.00,,,0.00,WSDL version 423,2013-02-06 10:21:00,
2013-02-06 02:26:00,41.1,41.1,30.08,SSW,203,0.0,0.0,100,0.00,,,0.00,WSDL version 423,2013-02-06 10:26:00,
2013-02-06 02:31:00,41.5,41.5,30.08,SSW,203,0.0,0.0,100,0.00,,,0.00,WSDL version 423,2013-02-06 10:31:00,
2013-02-06 02:36:00,41.7,41.7,30.07,SSW,203,0.0,0.0,100,0.00,,,0.00,WSDL version 423,2013-02-06 10:36:00,
2013-02-06 02:41:00,41.7,41.6,30.07,SSW,203,0.0,0.0,99,0.00,,,0.00,WSDL version 423,2013-02-06 10:41:00,
2013-02-06 02:46:00,41.6,41.3,30.07,SSW,203,0.0,0.0,99,0.00,,,0.00,WSDL version 423,2013-02-06 10:46:00,
2013-02-06 02:51:00,41.4,40.8,30.07,SSW,203,0.0,0.0,97,0.00,,,0.00,WSDL version 423,2013-02-06 10:51:00,
2013-02-06 02:56:00,41.2,40.3,30.07,SSW,203,0.0,0.0,96,0.00,,,0.00,WSDL version 423,2013-02-06 10:56:00,
2013-02-06 03:01:00,41.0,39.7,30.07,SSW,203,0.0,0.0,94,0.00,,,0.00,WSDL version 423,2013-02-06 11:01:00,
2013-02-06 03:06:00,40.7,39.1,30.06,SSW,203,0.0,0.0,93,0.00,,,0.00,WSDL version 423,2013-02-06 11:06:00,
2013-02-06 03:11:00,40.6,38.8,30.06,SSW,203,0.0,0.0,92,0.00,,,0.00,WSDL version 423,2013-02-06 11:11:00,
2013-02-06 03:16:00,40.6,38.5,30.06,SSW,203,0.0,0.0,92,0.00,,,0.00,WSDL version 423,2013-02-06 11:16:00,
2013-02-06 03:21:00,40.4,38.0,30.06,SSW,203,0.0,0.0,91,0.00,,,0.00,WSDL version 423,2013-02-06 11:21:00,
2013-02-06 03:26:00,40.3,37.9,30.06,SSW,203,0.0,0.0,91,0.00,,,0.00,WSDL version 423,2013-02-06 11:26:00,
2013-02-06 03:31:00,40.6,38.4,30.07,SSW,203,0.0,0.0,92,0.00,,,0.00,WSDL version 423,2013-02-06 11:31:00,
2013-02-06 03:36:00,41.0,38.6,30.06,SSW,203,0.0,0.0,91,0.00,,,0.00,WSDL version 423,2013-02-06 11:36:00,
2013-02-06 03:41:00,40.7,38.4,30.07,SSW,203,0.0,0.0,91,0.00,,,0.00,WSDL version 423,2013-02-06 11:41:00,
2013-02-06 03:46:00,40.5,37.8,30.07,SSW,203,0.0,0.0,90,0.00,,,0.00,WSDL version 423,2013-02-06 11:46:00,
2013-02-06 03:51:00,40.7,37.9,30.07,SSW,203,0.0,0.0,89,0.00,,,0.00,WSDL version 423,2013-02-06 11:51:00,
2013-02-06 03:56:00,40.7,37.7,30.07,SSW,203,0.0,0.0,89,0.00,,,0.00,WSDL version 423,2013-02-06 11:56:00,
2013-02-06 04:01:00,40.6,37.4,30.07,SSW,203,0.0,0.0,88,0.00,,,0.00,WSDL version 423,2013-02-06 12:01:00,
2013-02-06 04:06:00,40.3,37.0,30.07,SSW,203,0.0,0.0,88,0.00,,,0.00,WSDL version 423,2013-02-06 12:06:00,
2013-02-06 04:11:00,39.8,36.2,30.07,SSW,203,0.0,0.0,87,0.00,,,0.00,WSDL version 423,2013-02-06 12:11:00,
2013-02-06 04:16:00,39.7,36.2,30.08,SSW,203,0.0,0.0,88,0.00,,,0.00,WSDL version 423,2013-02-06 12:16:00,
2013-02-06 04:21:00,39.8,36.5,30.07,SSW,203,0.0,0.0,88,0.00,,,0.00,WSDL version 423,2013-02-06 12:21:00,
2013-02-06 04:26:00,39.8,36.5,30.08,SSW,203,0.0,0.0,88,0.00,,,0.00,WSDL version 423,2013-02-06 12:26:00,
2013-02-06 04:31:00,39.5,36.2,30.08,SSW,203,0.0,0.0,88,0.00,,,0.00,WSDL version 423,2013-02-06 12:31:00,
2013-02-06 04:36:00,39.1,35.8,30.08,SSW,203,0.0,0.0,88,0.00,,,0.00,WSDL version 423,2013-02-06 12:36:00,
2013-02-06 04:41:00,38.8,35.5,30.08,SSW,203,0.0,0.0,88,0.00,,,0.00,WSDL version 423,2013-02-06 12:41:00,
2013-02-06 04:46:00,38.5,35.2,30.08,SSW,203,0.0,0.0,88,0.00,,,0.00,WSDL version 423,2013-02-06 12:46:00,
2013-02-06 04:51:00,38.5,35.2,30.08,SSW,203,0.0,0.0,88,0.00,,,0.00,WSDL version 423,2013-02-06 12:51:00,
2013-02-06 04:56:00,38.6,35.6,30.08,SSW,203,0.0,0.0,90,0.00,,,0.00,WSDL version 423,2013-02-06 12:56:00,
2013-02-06 05:01:00,39.7,37.4,30.08,SSW,203,0.0,0.0,92,0.00,,,0.00,WSDL version 423,2013-02-06 13:01:00,
2013-02-06 05:06:00,40.9,37.9,30.08,SSW,203,0.0,0.0,87,0.00,,,0.00,WSDL version 423,2013-02-06 13:06:00,
2013-02-06 05:11:00,41.5,37.1,30.07,SSW,203,0.0,0.0,83,0.00,,,0.00,WSDL version 423,2013-02-06 13:11:00,
2013-02-06 05:16:00,41.8,36.4,30.08,SSW,203,0.0,0.0,80,0.00,,,0.00,WSDL version 423,2013-02-06 13:16:00,
2013-02-06 05:21:00,42.1,36.0,30.08,SSW,203,0.0,0.0,79,0.00,,,0.00,WSDL version 423,2013-02-06 13:21:00,
2013-02-06 05:26:00,42.1,36.0,30.08,SSW,203,0.0,0.0,79,0.00,,,0.00,WSDL version 423,2013-02-06 13:26:00,
2013-02-06 05:31:00,41.9,35.9,30.08,SSW,203,0.0,0.0,79,0.00,,,0.00,WSDL version 423,2013-02-06 13:31:00,
2013-02-06 05:36:00,41.5,35.2,30.08,SSW,203,0.0,0.0,78,0.00,,,0.00,WSDL version 423,2013-02-06 13:36:00,
2013-02-06 05:41:00,41.2,35.0,30.08,SSW,203,0.0,0.0,79,0.00,,,0.00,WSDL version 423,2013-02-06 13:41:00,
2013-02-06 05:46:00,40.9,34.9,30.08,SSW,203,0.0,0.0,79,0.00,,,0.00,WSDL version 423,2013-02-06 13:46:00,
2013-02-06 05:51:00,40.3,34.4,30.09,SSW,203,0.0,0.0,79,0.00,,,0.00,WSDL version 423,2013-02-06 13:51:00,
2013-02-06 05:56:00,40.3,34.5,30.09,SSW,203,0.0,0.0,80,0.00,,,0.00,WSDL version 423,2013-02-06 13:56:00,
2013-02-06 06:01:00,40.0,34.3,30.10,SSW,203,0.0,0.0,80,0.00,,,0.00,WSDL version 423,2013-02-06 14:01:00,
2013-02-06 06:06:00,39.6,34.1,30.10,SSW,203,0.0,0.0,81,0.00,,,0.00,WSDL version 423,2013-02-06 14:06:00,
2013-02-06 06:11:00,39.2,33.9,30.10,SSW,203,0.0,0.0,81,0.00,,,0.00,WSDL version 423,2013-02-06 14:11:00,
2013-02-06 06:16:00,38.8,33.7,30.10,SSW,203,0.0,0.0,82,0.00,,,0.00,WSDL version 423,2013-02-06 14:16:00,
2013-02-06 06:21:00,38.2,33.1,30.10,SSW,203,0.0,0.0,81,0.00,,,0.00,WSDL version 423,2013-02-06 14:21:00,
2013-02-06 06:26:00,37.6,32.3,30.10,SSW,203,0.0,0.0,81,0.00,,,0.00,WSDL version 423,2013-02-06 14:26:00,
2013-02-06 06:31:00,37.2,32.4,30.11,SSW,203,0.0,0.0,83,0.00,,,0.00,WSDL version 423,2013-02-06 14:31:00,
2013-02-06 06:36:00,36.9,32.3,30.11,SSW,203,0.0,0.0,83,0.00,,,0.00,WSDL version 423,2013-02-06 14:36:00,
2013-02-06 06:41:00,36.5,31.9,30.11,SSW,203,0.0,0.0,83,0.00,,,0.00,WSDL version 423,2013-02-06 14:41:00,
2013-02-06 06:46:00,36.2,31.6,30.11,SSW,203,0.0,0.0,83,0.00,,,0.00,WSDL version 423,2013-02-06 14:46:00,
2013-02-06 06:51:00,35.9,31.6,30.11,SSW,203,0.0,0.0,84,0.00,,,0.00,WSDL version 423,2013-02-06 14:51:00,
2013-02-06 06:56:00,35.8,31.6,30.12,SSW,203,0.0,0.0,86,0.00,,,0.00,WSDL version 423,2013-02-06 14:56:00,
2013-02-06 07:01:00,35.6,31.7,30.12,SSW,203,0.0,0.0,86,0.00,,,0.00,WSDL version 423,2013-02-06 15:01:00,
2013-02-06 07:06:00,35.6,31.7,30.12,SSW,203,0.0,0.0,86,0.00,,,0.00,WSDL version 423,2013-02-06 15:06:00,
2013-02-06 07:11:00,35.6,31.9,30.12,SSW,203,0.0,0.0,87,0.00,,,0.00,WSDL version 423,2013-02-06 15:11:00,
2013-02-06 07:16:00,35.6,32.0,30.12,SSW,203,0.0,0.0,87,0.00,,,0.00,WSDL version 423,2013-02-06 15:16:00,
2013-02-06 07:21:00,35.6,32.3,30.12,SSW,203,0.0,0.0,88,0.00,,,0.00,WSDL version 423,2013-02-06 15:21:00,
2013-02-06 07:26:00,35.7,32.5,30.12,SSW,203,0.0,0.0,88,0.00,,,0.00,WSDL version 423,2013-02-06 15:26:00,
2013-02-06 07:31:00,36.3,33.3,30.12,SSW,203,0.0,0.0,89,0.00,,,0.00,WSDL version 423,2013-02-06 15:31:00,
2013-02-06 07:36:00,36.9,34.1,30.12,SSW,203,0.0,0.0,90,0.00,,,0.00,WSDL version 423,2013-02-06 15:36:00,
2013-02-06 07:41:00,37.6,34.9,30.12,SSW,203,0.0,0.0,90,0.00,,,0.00,WSDL version 423,2013-02-06 15:41:00,
2013-02-06 07:46:00,38.2,35.5,30.12,SSW,203,0.0,0.0,90,0.00,,,0.00,WSDL version 423,2013-02-06 15:46:00,
2013-02-06 07:51:00,38.8,36.4,30.13,SSW,203,0.0,0.0,91,0.00,,,0.00,WSDL version 423,2013-02-06 15:51:00,
2013-02-06 07:56:00,39.3,36.9,30.13,SSW,203,0.0,0.0,91,0.00,,,0.00,WSDL version 423,2013-02-06 15:56:00,
2013-02-06 08:01:00,40.0,37.6,30.12,SSW,203,0.0,0.0,91,0.00,,,0.00,WSDL version 423,2013-02-06 16:01:00,
2013-02-06 08:06:00,40.5,37.8,30.12,SSW,203,0.0,0.0,90,0.00,,,0.00,WSDL version 423,2013-02-06 16:06:00,
2013-02-06 08:11:00,41.1,38.1,30.12,SSW,203,0.0,0.0,89,0.00,,,0.00,WSDL version 423,2013-02-06 16:11:00,
2013-02-06 08:16:00,42.1,38.9,30.12,SSW,203,0.0,0.0,88,0.00,,,0.00,WSDL version 423,2013-02-06 16:16:00,
2013-02-06 08:21:00,42.6,38.9,30.12,SSW,203,0.0,0.0,86,0.00,,,0.00,WSDL version 423,2013-02-06 16:21:00,
2013-02-06 08:26:00,43.3,39.1,30.12,SSW,203,0.0,0.0,83,0.00,,,0.00,WSDL version 423,2013-02-06 16:26:00,
2013-02-06 08:31:00,43.7,38.5,30.12,SSW,203,0.0,0.0,80,0.00,,,0.00,WSDL version 423,2013-02-06 16:31:00,
2013-02-06 08:36:00,44.3,38.0,30.12,SSW,203,0.0,0.0,77,0.00,,,0.00,WSDL version 423,2013-02-06 16:36:00,
2013-02-06 08:41:00,44.7,37.5,30.13,SSW,203,0.0,0.0,75,0.00,,,0.00,WSDL version 423,2013-02-06 16:41:00,
2013-02-06 08:46:00,45.5,38.1,30.12,SSW,203,0.0,0.0,74,0.00,,,0.00,WSDL version 423,2013-02-06 16:46:00,
2013-02-06 08:51:00,46.1,38.2,30.13,SSW,203,0.0,0.0,73,0.00,,,0.00,WSDL version 423,2013-02-06 16:51:00,
2013-02-06 08:56:00,46.9,38.9,30.12,SSW,203,0.0,0.0,73,0.00,,,0.00,WSDL version 423,2013-02-06 16:56:00,
2013-02-06 09:01:00,47.3,39.3,30.12,SSW,203,0.0,0.0,73,0.00,,,0.00,WSDL version 423,2013-02-06 17:01:00,
2013-02-06 09:06:00,47.4,38.9,30.12,SSW,203,0.0,0.0,72,0.00,,,0.00,WSDL version 423,2013-02-06 17:06:00,
2013-02-06 09:11:00,47.7,38.3,30.12,SSW,203,0.0,0.0,69,0.00,,,0.00,WSDL version 423,2013-02-06 17:11:00,
2013-02-06 09:16:00,48.7,38.4,30.12,SSW,203,0.0,0.0,67,0.00,,,0.00,WSDL version 423,2013-02-06 17:16:00,
2013-02-06 09:21:00,49.2,37.2,30.12,SSW,203,0.0,0.0,60,0.00,,,0.00,WSDL version 423,2013-02-06 17:21:00,
2013-02-06 09:26:00,49.9,36.8,30.12,SSW,203,0.0,0.0,60,0.00,,,0.00,WSDL version 423,2013-02-06 17:26:00,
2013-02-06 09:31:00,50.6,36.8,30.12,SSW,203,0.0,0.0,58,0.00,,,0.00,WSDL version 423,2013-02-06 17:31:00,
2013-02-06 09:36:00,51.3,36.1,30.12,SSW,203,0.0,0.0,55,0.00,,,0.00,WSDL version 423,2013-02-06 17:36:00,
2013-02-06 09:41:00,51.7,36.5,30.12,SSW,203,0.0,0.0,57,0.00,,,0.00,WSDL version 423,2013-02-06 17:41:00,
2013-02-06 09:46:00,51.9,37.8,30.12,SSW,203,0.0,0.0,60,0.00,,,0.00,WSDL version 423,2013-02-06 17:46:00,
2013-02-06 09:51:00,52.0,38.4,30.12,SSW,203,0.0,0.0,59,0.00,,,0.00,WSDL version 423,2013-02-06 17:51:00,
2013-02-06 09:56:00,51.5,38.2,30.12,SSW,203,0.0,0.0,61,0.00,,,0.00,WSDL version 423,2013-02-06 17:56:00,
2013-02-06 10:01:00,50.8,38.0,30.13,SSW,203,0.0,0.0,64,0.00,,,0.00,WSDL version 423,2013-02-06 18:01:00,
2013-02-06 10:06:00,51.6,39.7,30.13,SSW,203,0.0,0.0,63,0.00,,,0.00,WSDL version 423,2013-02-06 18:06:00,
2013-02-06 10:11:00,51.1,38.4,30.13,SSW,203,0.0,0.0,62,0.00,,,0.00,WSDL version 423,2013-02-06 18:11:00,
2013-02-06 10:16:00,51.5,39.2,30.13,SSW,203,0.0,0.0,63,0.00,,,0.00,WSDL version 423,2013-02-06 18:16:00,
2013-02-06 10:21:00,51.8,39.2,30.13,SSW,203,0.0,0.0,62,0.00,,,0.00,WSDL version 423,2013-02-06 18:21:00,
2013-02-06 10:26:00,52.6,39.6,30.13,SSW,203,0.0,0.0,60,0.00,,,0.00,WSDL version 423,2013-02-06 18:26:00,
2013-02-06 10:31:00,53.4,39.7,30.13,SSW,203,0.0,0.0,59,0.00,,,0.00,WSDL version 423,2013-02-06 18:31:00,
2013-02-06 10:36:00,52.9,38.7,30.13,SSW,203,0.0,0.0,59,0.00,,,0.00,WSDL version 423,2013-02-06 18:36:00,
2013-02-06 10:41:00,52.9,39.5,30.13,SSW,203,0.0,0.0,60,0.00,,,0.00,WSDL version 423,2013-02-06 18:41:00,
2013-02-06 10:46:00,53.4,39.7,30.13,SSW,203,0.0,0.0,59,0.00,,,0.00,WSDL version 423,2013-02-06 18:46:00,
2013-02-06 10:51:00,53.3,39.1,30.13,SSW,203,0.0,0.0,58,0.00,,,0.00,WSDL version 423,2013-02-06 18:51:00,
2013-02-06 10:56:00,53.2,39.2,30.13,SSW,203,0.0,0.0,60,0.00,,,0.00,WSDL version 423,2013-02-06 18:56:00,
2013-02-06 11:01:00,53.7,39.6,30.13,SSW,203,0.0,0.0,58,0.00,,,0.00,WSDL version 423,2013-02-06 19:01:00,
2013-02-06 11:06:00,53.3,37.9,30.13,SSW,203,0.0,0.0,53,0.00,,,0.00,WSDL version 423,2013-02-06 19:06:00,
2013-02-06 11:11:00,53.1,36.7,30.13,SSW,203,0.0,0.0,52,0.00,,,0.00,WSDL version 423,2013-02-06 19:11:00,
2013-02-06 11:16:00,52.9,35.5,30.13,SSW,203,0.0,0.0,51,0.00,,,0.00,WSDL version 423,2013-02-06 19:16:00,
2013-02-06 11:21:00,52.6,34.8,30.13,SSW,203,0.0,0.0,51,0.00,,,0.00,WSDL version 423,2013-02-06 19:21:00,
2013-02-06 11:26:00,52.9,36.4,30.12,SSW,203,0.0,0.0,54,0.00,,,0.00,WSDL version 423,2013-02-06 19:26:00,
2013-02-06 11:31:00,53.2,35.5,30.12,SSW,203,0.0,0.0,49,0.00,,,0.00,WSDL version 423,2013-02-06 19:31:00,
2013-02-06 11:36:00,53.2,34.6,30.12,SSW,203,0.0,0.0,49,0.00,,,0.00,WSDL version 423,2013-02-06 19:36:00,
2013-02-06 11:41:00,53.5,35.6,30.12,SSW,203,0.0,0.0,51,0.00,,,0.00,WSDL version 423,2013-02-06 19:41:00,
2013-02-06 11:46:00,53.5,35.4,30.12,SSW,203,0.0,0.0,51,0.00,,,0.00,WSDL version 423,2013-02-06 19:46:00,
2013-02-06 11:51:00,53.2,35.2,30.12,SSW,203,0.0,0.0,51,0.00,,,0.00,WSDL version 423,2013-02-06 19:51:00,
2013-02-06 11:56:00,53.3,36.1,30.12,SSW,203,0.0,0.0,52,0.00,,,0.00,WSDL version 423,2013-02-06 19:56:00,
2013-02-06 12:01:00,53.5,36.7,30.12,SSW,203,0.0,0.0,53,0.00,,,0.00,WSDL version 423,2013-02-06 20:01:00,
2013-02-06 12:06:00,54.2,37.4,30.12,SSW,203,0.0,0.0,53,0.00,,,0.00,WSDL version 423,2013-02-06 20:06:00,
2013-02-06 12:11:00,54.8,37.6,30.12,SSW,203,0.0,0.0,51,0.00,,,0.00,WSDL version 423,2013-02-06 20:11:00,
2013-02-06 12:16:00,54.8,36.2,30.12,SSW,203,0.0,0.0,49,0.00,,,0.00,WSDL version 423,2013-02-06 20:16:00,
2013-02-06 12:21:00,54.7,35.9,30.11,SSW,203,0.0,0.0,49,0.00,,,0.00,WSDL version 423,2013-02-06 20:21:00,
2013-02-06 12:26:00,54.5,36.0,30.11,SSW,203,0.0,0.0,49,0.00,,,0.00,WSDL version 423,2013-02-06 20:26:00,
2013-02-06 12:31:00,54.6,36.0,30.11,SSW,203,0.0,0.0,49,0.00,,,0.00,WSDL version 423,2013-02-06 20:31:00,
2013-02-06 12:36:00,55.0,36.6,30.11,SSW,203,0.0,0.0,49,0.00,,,0.00,WSDL version 423,2013-02-06 20:36:00,
2013-02-06 12:41:00,55.1,36.0,30.11,SSW,203,0.0,0.0,48,0.00,,,0.00,WSDL version 423,2013-02-06 20:41:00,
2013-02-06 12:46:00,55.1,35.2,30.11,SSW,203,0.0,0.0,47,0.00,,,0.00,WSDL version 423,2013-02-06 20:46:00,
2013-02-06 12:51:00,55.5,35.5,30.10,SSW,203,0.0,0.0,46,0.00,,,0.00,WSDL version 423,2013-02-06 20:51:00,
2013-02-06 12:56:00,55.7,35.3,30.10,SSW,203,0.0,0.0,46,0.00,,,0.00,WSDL version 423,2013-02-06 20:56:00,
2013-02-06 13:01:00,55.9,35.4,30.10,SSW,203,0.0,0.0,45,0.00,,,0.00,WSDL version 423,2013-02-06 21:01:00,
2013-02-06 13:06:00,56.1,35.5,30.10,SSW,203,0.0,0.0,46,0.00,,,0.00,WSDL version 423,2013-02-06 21:06:00,
2013-02-06 13:11:00,56.0,35.5,30.09,SSW,203,0.0,0.0,46,0.00,,,0.00,WSDL version 423,2013-02-06 21:11:00,
2013-02-06 13:16:00,56.0,35.3,30.09,SSW,203,0.0,0.0,45,0.00,,,0.00,WSDL version 423,2013-02-06 21:16:00,
2013-02-06 13:21:00,55.7,34.7,30.09,SSW,203,0.0,0.0,45,0.00,,,0.00,WSDL version 423,2013-02-06 21:21:00,
2013-02-06 13:26:00,55.6,34.4,30.09,SSW,203,0.0,0.0,45,0.00,,,0.00,WSDL version 423,2013-02-06 21:26:00,
2013-02-06 13:31:00,55.8,34.2,30.08,SSW,203,0.0,0.0,44,0.00,,,0.00,WSDL version 423,2013-02-06 21:31:00,
2013-02-06 13:36:00,55.8,34.4,30.08,SSW,203,0.0,0.0,44,0.00,,,0.00,WSDL version 423,2013-02-06 21:36:00,
2013-02-06 13:41:00,55.7,34.2,30.08,SSW,203,0.0,0.0,44,0.00,,,0.00,WSDL version 423,2013-02-06 21:41:00,
2013-02-06 13:46:00,55.7,34.4,30.08,SSW,203,0.0,0.0,45,0.00,,,0.00,WSDL version 423,2013-02-06 21:46:00,
2013-02-06 13:51:00,55.9,34.5,30.08,SSW,203,0.0,0.0,44,0.00,,,0.00,WSDL version 423,2013-02-06 21:51:00,
2013-02-06 13:56:00,55.9,34.1,30.08,SSW,203,0.0,0.0,43,0.00,,,0.00,WSDL version 423,2013-02-06 21:56:00,
2013-02-06 14:01:00,55.9,34.2,30.08,SSW,203,0.0,0.0,44,0.00,,,0.00,WSDL version 423,2013-02-06 22:01:00,
2013-02-06 14:06:00,55.9,33.8,30.08,SSW,203,0.0,0.0,43,0.00,,,0.00,WSDL version 423,2013-02-06 22:06:00,
2013-02-06 14:11:00,56.1,33.5,30.07,SSW,203,0.0,0.0,42,0.00,,,0.00,WSDL version 423,2013-02-06 22:11:00,
2013-02-06 14:16:00,56.2,33.2,30.07,SSW,203,0.0,0.0,42,0.00,,,0.00,WSDL version 423,2013-02-06 22:16:00,
2013-02-06 14:21:00,56.2,33.5,30.08,SSW,203,0.0,0.0,42,0.00,,,0.00,WSDL version 423,2013-02-06 22:21:00,
2013-02-06 14:26:00,56.3,33.8,30.08,SSW,203,0.0,0.0,43,0.00,,,0.00,WSDL version 423,2013-02-06 22:26:00,
2013-02-06 14:31:00,56.3,33.3,30.08,SSW,203,0.0,0.0,40,0.00,,,0.00,WSDL version 423,2013-02-06 22:31:00,
2013-02-06 14:36:00,56.6,32.6,30.07,SSW,203,0.0,0.0,40,0.00,,,0.00,WSDL version 423,2013-02-06 22:36:00,
2013-02-06 14:41:00,56.8,32.7,30.07,SSW,203,0.0,0.0,39,0.00,,,0.00,WSDL version 423,2013-02-06 22:41:00,
2013-02-06 14:46:00,57.0,32.3,30.07,SSW,203,0.0,0.0,38,0.00,,,0.00,WSDL version 423,2013-02-06 22:46:00,
2013-02-06 14:51:00,57.2,31.9,30.07,SSW,203,0.0,0.0,38,0.00,,,0.00,WSDL version 423,2013-02-06 22:51:00,
2013-02-06 14:56:00,57.4,31.6,30.07,SSW,203,0.0,0.0,37,0.00,,,0.00,WSDL version 423,2013-02-06 22:56:00,
2013-02-06 15:01:00,57.2,30.7,30.07,SSW,203,0.0,0.0,36,0.00,,,0.00,WSDL version 423,2013-02-06 23:01:00,
2013-02-06 15:06:00,57.2,30.5,30.07,SSW,203,0.0,0.0,36,0.00,,,0.00,WSDL version 423,2013-02-06 23:06:00,
2013-02-06 15:11:00,57.2,30.2,30.07,SSW,203,0.0,0.0,35,0.00,,,0.00,WSDL version 423,2013-02-06 23:11:00,
2013-02-06 15:16:00,57.1,30.1,30.07,SSW,203,0.0,0.0,36,0.00,,,0.00,WSDL version 423,2013-02-06 23:16:00,
2013-02-06 15:21:00,57.1,30.4,30.07,SSW,203,0.0,0.0,36,0.00,,,0.00,WSDL version 423,2013-02-06 23:21:00,
2013-02-06 15:26:00,57.3,30.6,30.07,SSW,203,0.0,0.0,36,0.00,,,0.00,WSDL version 423,2013-02-06 23:26:00,
2013-02-06 15:31:00,57.4,30.6,30.07,SSW,203,0.0,0.0,36,0.00,,,0.00,WSDL version 423,2013-02-06 23:31:00,
2013-02-06 15:36:00,57.2,30.5,30.06,SSW,203,0.0,0.0,36,0.00,,,0.00,WSDL version 423,2013-02-06 23:36:00,
2013-02-06 15:41:00,57.3,30.6,30.06,SSW,203,0.0,0.0,36,0.00,,,0.00,WSDL version 423,2013-02-06 23:41:00,
2013-02-06 15:46:00,57.4,30.7,30.07,SSW,203,0.0,0.0,36,0.00,,,0.00,WSDL version 423,2013-02-06 23:46:00,
2013-02-06 15:51:00,57.6,30.1,30.07,SSW,203,0.0,0.0,35,0.00,,,0.00,WSDL version 423,2013-02-06 23:51:00,
2013-02-06 15:56:00,57.6,30.4,30.07,SSW,203,0.0,0.0,35,0.00,,,0.00,WSDL version 423,2013-02-06 23:56:00,
2013-02-06 16:01:00,57.3,30.6,30.07,SSW,203,0.0,0.0,36,0.00,,,0.00,WSDL version 423,2013-02-07 00:01:00,
2013-02-06 16:06:00,57.2,30.5,30.07,SSW,203,0.0,0.0,36,0.00,,,0.00,WSDL version 423,2013-02-07 00:06:00,
2013-02-06 16:11:00,57.2,30.8,30.07,SSW,203,0.0,0.0,37,0.00,,,0.00,WSDL version 423,2013-02-07 00:11:00,
2013-02-06 16:16:00,57.2,31.2,30.08,SSW,203,0.0,0.0,37,0.00,,,0.00,WSDL version 423,2013-02-07 00:16:00,
2013-02-06 16:21:00,57.1,31.5,30.08,SSW,203,0.0,0.0,38,0.00,,,0.00,WSDL version 423,2013-02-07 00:21:00,
2013-02-06 16:26:00,57.1,31.7,30.08,SSW,203,0.0,0.0,38,0.00,,,0.00,WSDL version 423,2013-02-07 00:26:00,
2013-02-06 16:31:00,56.9,31.6,30.08,SSW,203,0.0,0.0,38,0.00,,,0.00,WSDL version 423,2013-02-07 00:31:00,
2013-02-06 16:36:00,56.7,31.4,30.08,SSW,203,0.0,0.0,38,0.00,,,0.00,WSDL version 423,2013-02-07 00:36:00,
2013-02-06 16:41:00,56.4,31.1,30.08,SSW,203,0.0,0.0,38,0.00,,,0.00,WSDL version 423,2013-02-07 00:41:00,
2013-02-06 16:46:00,56.1,30.8,30.08,SSW,203,0.0,0.0,38,0.00,,,0.00,WSDL version 423,2013-02-07 00:46:00,
2013-02-06 16:51:00,55.8,30.6,30.09,SSW,203,0.0,0.0,38,0.00,,,0.00,WSDL version 423,2013-02-07 00:51:00,
2013-02-06 16:56:00,55.5,30.3,30.08,SSW,203,0.0,0.0,38,0.00,,,0.00,WSDL version 423,2013-02-07 00:56:00,
2013-02-06 17:01:00,55.3,30.4,30.08,SSW,203,0.0,0.0,39,0.00,,,0.00,WSDL version 423,2013-02-07 01:01:00,
2013-02-06 17:06:00,54.9,30.8,30.09,SSW,203,0.0,0.0,40,0.00,,,0.00,WSDL version 423,2013-02-07 01:06:00,
2013-02-06 17:11:00,54.4,31.4,30.09,SSW,203,0.0,0.0,42,0.00,,,0.00,WSDL version 423,2013-02-07 01:11:00,
2013-02-06 17:16:00,54.1,31.7,30.09,SSW,203,0.0,0.0,43,0.00,,,0.00,WSDL version 423,2013-02-07 01:16:00,
2013-02-06 17:26:00,53.2,32.9,30.09,SSW,203,0.0,0.0,46,0.00,,,0.00,WSDL version 423,2013-02-07 01:26:00,
2013-02-06 17:31:00,52.9,32.7,30.09,SSW,203,0.0,0.0,46,0.00,,,0.00,WSDL version 423,2013-02-07 01:31:00,
2013-02-06 17:36:00,52.3,32.2,30.09,SSW,203,0.0,0.0,46,0.00,,,0.00,WSDL version 423,2013-02-07 01:36:00,
2013-02-06 17:41:00,51.9,31.8,30.09,SSW,203,0.0,0.0,46,0.00,,,0.00,WSDL version 423,2013-02-07 01:41:00,
2013-02-06 17:46:00,51.6,32.0,30.09,SSW,203,0.0,0.0,47,0.00,,,0.00,WSDL version 423,2013-02-07 01:46:00,
2013-02-06 17:51:00,51.3,31.8,30.09,SSW,203,0.0,0.0,47,0.00,,,0.00,WSDL version 423,2013-02-07 01:51:00,
2013-02-06 17:56:00,50.9,31.4,30.09,SSW,203,0.0,0.0,47,0.00,,,0.00,WSDL version 423,2013-02-07 01:56:00,
2013-02-06 18:01:00,50.4,31.4,30.09,SSW,203,0.0,0.0,48,0.00,,,0.00,WSDL version 423,2013-02-07 02:01:00,
2013-02-06 18:06:00,50.1,31.2,30.10,SSW,203,0.0,0.0,48,0.00,,,0.00,WSDL version 423,2013-02-07 02:06:00,
2013-02-06 18:11:00,49.7,31.2,30.10,SSW,203,0.0,0.0,49,0.00,,,0.00,WSDL version 423,2013-02-07 02:11:00,
2013-02-06 18:16:00,49.5,31.2,30.10,SSW,203,0.0,0.0,49,0.00,,,0.00,WSDL version 423,2013-02-07 02:16:00,
2013-02-06 18:21:00,49.7,32.3,30.10,SSW,203,0.0,0.0,52,0.00,,,0.00,WSDL version 423,2013-02-07 02:21:00,
2013-02-06 18:26:00,49.6,32.7,30.10,SSW,203,0.0,0.0,52,0.00,,,0.00,WSDL version 423,2013-02-07 02:26:00,
2013-02-06 18:31:00,49.5,32.6,30.10,SSW,203,0.0,0.0,52,0.00,,,0.00,WSDL version 423,2013-02-07 02:31:00,
2013-02-06 18:41:00,48.8,32.0,30.10,SSW,203,0.0,0.0,52,0.00,,,0.00,WSDL version 423,2013-02-07 02:41:00,
2013-02-06 18:46:00,48.6,31.7,30.10,SSW,203,0.0,0.0,52,0.00,,,0.00,WSDL version 423,2013-02-07 02:46:00,
2013-02-06 18:51:00,47.9,31.6,30.10,SSW,203,0.0,0.0,53,0.00,,,0.00,WSDL version 423,2013-02-07 02:51:00,
2013-02-06 18:56:00,47.4,31.2,30.10,SSW,203,0.0,0.0,53,0.00,,,0.00,WSDL version 423,2013-02-07 02:56:00,
2013-02-06 19:01:00,47.1,31.2,30.10,SSW,203,0.0,0.0,54,0.00,,,0.00,WSDL version 423,2013-02-07 03:01:00,
2013-02-06 19:11:00,46.7,31.5,30.10,SSW,203,0.0,0.0,55,0.00,,,0.00,WSDL version 423,2013-02-07 03:11:00,
2013-02-06 19:16:00,46.4,31.7,30.10,SSW,203,0.0,0.0,57,0.00,,,0.00,WSDL version 423,2013-02-07 03:16:00,
2013-02-06 19:26:00,46.0,31.8,30.10,SSW,203,0.0,0.0,58,0.00,,,0.00,WSDL version 423,2013-02-07 03:26:00,
2013-02-06 19:31:00,45.8,31.9,30.10,SSW,203,0.0,0.0,58,0.00,,,0.00,WSDL version 423,2013-02-07 03:31:00,
2013-02-06 19:36:00,45.6,32.1,30.10,SSW,203,0.0,0.0,59,0.00,,,0.00,WSDL version 423,2013-02-07 03:36:00,
2013-02-06 19:41:00,45.5,32.2,30.10,SSW,203,0.0,0.0,60,0.00,,,0.00,WSDL version 423,2013-02-07 03:41:00,
2013-02-06 19:46:00,45.9,33.2,30.10,SSW,203,0.0,0.0,62,0.00,,,0.00,WSDL version 423,2013-02-07 03:46:00,
2013-02-06 19:51:00,46.1,33.8,30.10,SSW,203,0.0,0.0,62,0.00,,,0.00,WSDL version 423,2013-02-07 03:51:00,
2013-02-06 20:01:00,45.3,33.1,30.10,SSW,203,0.0,0.0,62,0.00,,,0.00,WSDL version 423,2013-02-07 04:01:00,
2013-02-06 20:06:00,44.8,32.6,30.10,SSW,203,0.0,0.0,62,0.00,,,0.00,WSDL version 423,2013-02-07 04:06:00,
2013-02-06 20:11:00,44.5,32.6,30.10,SSW,203,0.0,0.0,63,0.00,,,0.00,WSDL version 423,2013-02-07 04:11:00,
2013-02-06 20:16:00,44.2,32.4,30.10,SSW,203,0.0,0.0,63,0.00,,,0.00,WSDL version 423,2013-02-07 04:16:00,
2013-02-06 20:21:00,44.1,32.7,30.11,SSW,203,0.0,0.0,65,0.00,,,0.00,WSDL version 423,2013-02-07 04:21:00,
2013-02-06 20:26:00,44.1,33.3,30.11,SSW,203,0.0,0.0,66,0.00,,,0.00,WSDL version 423,2013-02-07 04:26:00,
2013-02-06 20:31:00,43.9,33.5,30.11,SSW,203,0.0,0.0,67,0.00,,,0.00,WSDL version 423,2013-02-07 04:31:00,
2013-02-06 20:36:00,43.7,33.5,30.11,SSW,203,0.0,0.0,67,0.00,,,0.00,WSDL version 423,2013-02-07 04:36:00,
2013-02-06 20:41:00,43.7,33.5,30.11,SSW,203,0.0,0.0,68,0.00,,,0.00,WSDL version 423,2013-02-07 04:41:00,
2013-02-06 20:46:00,43.6,33.7,30.11,SSW,203,0.0,0.0,68,0.00,,,0.00,WSDL version 423,2013-02-07 04:46:00,
2013-02-06 20:51:00,43.5,33.9,30.11,SSW,203,0.0,0.0,69,0.00,,,0.00,WSDL version 423,2013-02-07 04:51:00,
2013-02-06 20:56:00,43.6,34.1,30.11,SSW,203,0.0,0.0,69,0.00,,,0.00,WSDL version 423,2013-02-07 04:56:00,
2013-02-06 21:01:00,43.6,34.3,30.12,SSW,203,0.0,0.0,70,0.00,,,0.00,WSDL version 423,2013-02-07 05:01:00,
2013-02-06 21:06:00,43.4,34.2,30.12,SSW,203,0.0,0.0,70,0.00,,,0.00,WSDL version 423,2013-02-07 05:06:00,
2013-02-06 21:11:00,43.3,34.2,30.12,SSW,203,0.0,0.0,70,0.00,,,0.00,WSDL version 423,2013-02-07 05:11:00,
2013-02-06 21:16:00,43.3,34.8,30.12,SSW,203,0.0,0.0,72,0.00,,,0.00,WSDL version 423,2013-02-07 05:16:00,
2013-02-06 21:21:00,43.4,35.2,30.12,SSW,203,0.0,0.0,73,0.00,,,0.00,WSDL version 423,2013-02-07 05:21:00,
2013-02-06 21:26:00,43.6,35.9,30.13,SSW,203,0.0,0.0,74,0.00,,,0.00,WSDL version 423,2013-02-07 05:26:00,
2013-02-06 21:31:00,43.7,36.0,30.13,SSW,203,0.0,0.0,74,0.00,,,0.00,WSDL version 423,2013-02-07 05:31:00,
2013-02-06 21:36:00,43.7,35.9,30.13,SSW,203,0.0,0.0,74,0.00,,,0.00,WSDL version 423,2013-02-07 05:36:00,
2013-02-06 21:41:00,43.4,35.7,30.13,SSW,203,0.0,0.0,74,0.00,,,0.00,WSDL version 423,2013-02-07 05:41:00,
2013-02-06 21:46:00,42.9,35.2,30.13,SSW,203,0.0,0.0,74,0.00,,,0.00,WSDL version 423,2013-02-07 05:46:00,
2013-02-06 21:51:00,42.5,34.8,30.13,SSW,203,0.0,0.0,74,0.00,,,0.00,WSDL version 423,2013-02-07 05:51:00,
2013-02-06 21:56:00,42.4,34.9,30.13,SSW,203,0.0,0.0,75,0.00,,,0.00,WSDL version 423,2013-02-07 05:56:00,
2013-02-06 22:01:00,42.5,35.7,30.13,SSW,203,0.0,0.0,78,0.00,,,0.00,WSDL version 423,2013-02-07 06:01:00,
2013-02-06 22:06:00,42.7,36.9,30.13,SSW,203,0.0,0.0,82,0.00,,,0.00,WSDL version 423,2013-02-07 06:06:00,
2013-02-06 22:11:00,42.9,38.9,30.12,SSW,203,0.0,0.0,87,0.00,,,0.00,WSDL version 423,2013-02-07 06:11:00,
2013-02-06 22:18:00,43.4,40.3,30.12,SSW,203,0.0,0.0,89,0.00,,,0.00,WSDL version 423,2013-02-07 06:18:00,
2013-02-06 22:28:00,43.6,40.7,30.12,SSW,203,0.0,0.0,90,0.00,,,0.00,WSDL version 423,2013-02-07 06:28:00,
2013-02-06 22:33:00,43.7,41.6,30.12,SSW,203,0.0,0.0,93,0.00,,,0.00,WSDL version 423,2013-02-07 06:33:00,
2013-02-06 22:38:00,43.7,41.7,30.12,SSW,203,0.0,0.0,93,0.00,,,0.00,WSDL version 423,2013-02-07 06:38:00,
2013-02-06 22:48:00,43.9,42.1,30.12,SSW,203,0.0,0.0,93,0.00,,,0.00,WSDL version 423,2013-02-07 06:48:00,
2013-02-06 22:53:00,44.0,42.4,30.12,SSW,203,0.0,0.0,94,0.00,,,0.00,WSDL version 423,2013-02-07 06:53:00,
2013-02-06 23:03:00,44.1,42.3,30.13,SSW,203,0.0,0.0,93,0.00,,,0.00,WSDL version 423,2013-02-07 07:03:00,
2013-02-06 23:08:00,44.2,42.3,30.13,SSW,203,0.0,0.0,92,0.00,,,0.00,WSDL version 423,2013-02-07 07:08:00,
2013-02-06 23:13:00,44.1,41.9,30.13,SSW,203,0.0,0.0,91,0.00,,,0.00,WSDL version 423,2013-02-07 07:13:00,
2013-02-06 23:18:00,44.1,41.5,30.13,SSW,203,0.0,0.0,90,0.00,,,0.00,WSDL version 423,2013-02-07 07:18:00,
2013-02-06 23:23:00,44.0,41.3,30.13,SSW,203,0.0,0.0,90,0.00,,,0.00,WSDL version 423,2013-02-07 07:23:00,
2013-02-06 23:28:00,43.8,40.7,30.13,SSW,203,0.0,0.0,89,0.00,,,0.00,WSDL version 423,2013-02-07 07:28:00,
2013-02-06 23:33:00,43.8,40.9,30.13,SSW,203,0.0,0.0,90,0.00,,,0.00,WSDL version 423,2013-02-07 07:33:00,
2013-02-06 23:38:00,43.9,41.4,30.13,SSW,203,0.0,0.0,91,0.00,,,0.00,WSDL version 423,2013-02-07 07:38:00,
2013-02-06 23:43:00,43.9,41.2,30.13,SSW,203,0.0,0.0,90,0.00,,,0.00,WSDL version 423,2013-02-07 07:43:00,
2013-02-06 23:48:00,43.8,41.0,30.13,SSW,203,0.0,0.0,90,0.00,,,0.00,WSDL version 423,2013-02-07 07:48:00,
2013-02-06 23:53:00,43.7,40.6,30.14,SSW,203,0.0,0.0,89,0.00,,,0.00,WSDL version 423,2013-02-07 07:53:00,
2013-02-06 23:58:00,43.7,40.4,30.13,SSW,203,0.0,0.0,88,0.00,,,0.00,WSDL version 423,2013-02-07 07:58:00,